Pinoso, Spain
Current Conditions -  °F | °C
As of 3:00 PM on Friday 31 Oct 2014 (Local Time) from LEAL Reporting Station
Few Clouds Few Clouds  
Wind Chill: 23°   Ceiling: Unl
Heat Index: 23°   Visibility: 6mi
Dew Point: 15°   Wind: 6mph
Humidity: 61%   Direction: 90°E
Pressure: 30.21"   Gusts: NA
Location:  38.42°N, 1.03°W
Report Text: LEAL 311400Z 09005KT 030V140 9999 FEW015 23/15 Q1023 NOSIG
Loading
Personal Weather Stations






























Interactive Weather Map
Tropical Storm Tracking
New forecast layout! Learn more

10-Day Weather Forecast

Advertisements
Track Severe Weather on mobile